Bowmansville, New York
Current Conditions -  °F | °C
As of 2:54 PM on Monday 22 Dec 2014 (Local Time) from KBUF Reporting Station
Broken Clouds Broken Clouds  
Wind Chill:   Ceiling: 22000
Heat Index:   Visibility: 10mi
Dew Point: -3°   Wind: 5mph
Humidity: 60%   Direction: 110°ESE
Pressure: 30.07"   Gusts: NA
Location:  42.94°N, 78.68°W
Report Text: KBUF 221954Z 11004KT 10SM FEW050 FEW150 BKN220 BKN280 04/M03 A3007 RMK AO2 SLP189 T00441028
Loading
Personal Weather Stations






























Interactive Weather Map New forecast layout! Learn more

10-Day Weather Forecast

Advertisements
Track Severe Weather on mobile